Time;durP1;ratioP1;P1;durP2;ratioP2;P2;SDS_P1;SDS_P2;PMS_P1;PMS_P2;Temp;Humidity;BMP_temperature;BMP_pressure;BME280_temperature;BME280_humidity;BME280_pressure;Samples;Min_cycle;Max_cycle;Signal;HPM_P1;HPM_P2
2022/12/28 00:00:49;;;;;;;3.87;1.63;;;3.70;99.90;;;;;;5054816;28;20269;-78
2022/12/28 00:03:14;;;;;;;4.03;1.67;;;3.70;99.90;;;;;;5054287;28;20177;-78
2022/12/28 00:05:40;;;;;;;4.07;1.73;;;3.70;99.90;;;;;;5036695;28;20678;-78
2022/12/28 00:08:05;;;;;;;2.70;1.40;;;3.60;99.90;;;;;;5036892;28;20177;-78
2022/12/28 00:10:31;;;;;;;3.03;1.70;;;3.60;99.90;;;;;;5054742;28;20539;-78
2022/12/28 00:12:57;;;;;;;6.90;2.07;;;3.50;99.90;;;;;;5053810;28;20275;-78
2022/12/28 00:15:23;;;;;;;3.90;1.70;;;3.60;99.90;;;;;;5036369;28;20231;-78
2022/12/28 00:17:49;;;;;;;3.17;1.80;;;3.60;99.90;;;;;;5036476;28;20203;-78
2022/12/28 00:20:14;;;;;;;5.27;2.10;;;3.60;99.90;;;;;;5054196;28;20176;-79
2022/12/28 00:22:40;;;;;;;4.17;1.87;;;3.50;99.90;;;;;;5036081;28;20191;-78
2022/12/28 00:25:06;;;;;;;5.13;1.60;;;3.50;99.90;;;;;;5036535;28;20191;-78
2022/12/28 00:27:32;;;;;;;4.57;1.80;;;3.60;99.90;;;;;;5036438;28;20206;-78
2022/12/28 00:29:57;;;;;;;4.43;2.00;;;3.60;99.90;;;;;;5036491;28;20188;-78
2022/12/28 00:32:23;;;;;;;5.33;2.10;;;3.60;99.90;;;;;;5035657;28;20180;-78
2022/12/28 00:34:48;;;;;;;5.60;1.87;;;3.60;99.90;;;;;;5053362;28;20212;-79
2022/12/28 00:37:14;;;;;;;6.77;2.07;;;3.60;99.90;;;;;;5036037;28;20204;-78
2022/12/28 00:39:41;;;;;;;4.60;1.63;;;3.60;99.90;;;;;;5036093;28;20230;-79
2022/12/28 00:42:07;;;;;;;4.40;1.90;;;3.70;99.90;;;;;;5054047;28;20176;-77
2022/12/28 00:44:33;;;;;;;5.97;2.20;;;3.70;99.90;;;;;;5035509;28;20204;-78
2022/12/28 00:46:58;;;;;;;4.37;1.70;;;3.80;99.90;;;;;;5035762;28;20180;-78
2022/12/28 00:49:24;;;;;;;3.73;2.30;;;3.80;99.90;;;;;;5053931;28;20663;-78
2022/12/28 00:51:49;;;;;;;4.20;2.00;;;3.90;99.90;;;;;;5053935;28;20181;-78
2022/12/28 00:54:15;;;;;;;5.77;1.97;;;3.90;99.90;;;;;;5040364;28;20181;-78
2022/12/28 00:56:41;;;;;;;4.77;2.03;;;3.90;99.90;;;;;;5035615;28;20322;-78
2022/12/28 00:59:08;;;;;;;5.20;2.10;;;3.80;99.90;;;;;;5036786;28;20167;-81
2022/12/28 01:01:34;;;;;;;3.33;2.10;;;3.90;99.90;;;;;;5037004;28;20172;-78
2022/12/28 01:04:00;;;;;;;3.60;2.17;;;3.90;99.90;;;;;;5035542;28;20176;-78
2022/12/28 01:06:27;;;;;;;5.47;2.40;;;3.80;99.90;;;;;;5053432;28;20215;-78
2022/12/28 01:08:52;;;;;;;5.47;2.10;;;3.80;99.90;;;;;;5054068;28;20686;-74
2022/12/28 01:11:23;;;;;;;3.20;2.10;;;3.80;99.90;;;;;;5046257;28;20181;-75
2022/12/28 01:13:51;;;;;;;5.20;2.20;;;3.80;99.90;;;;;;5050910;28;20225;-75
2022/12/28 01:16:39;;;;;;;7.17;2.00;;;3.80;99.90;;;;;;5040598;28;20334;-78
2022/12/28 01:19:06;;;;;;;3.43;2.10;;;3.90;99.90;;;;;;5039342;28;20204;-78
2022/12/28 01:21:33;;;;;;;3.83;2.40;;;3.90;99.90;;;;;;5039556;28;20177;-77
2022/12/28 01:24:01;;;;;;;5.07;2.20;;;3.90;99.90;;;;;;5038487;28;20174;-78
2022/12/28 01:26:28;;;;;;;4.97;2.00;;;4.00;99.90;;;;;;5039457;28;20192;-80
2022/12/28 01:28:54;;;;;;;2.97;2.10;;;4.00;99.90;;;;;;5039152;28;20233;-78
2022/12/28 01:31:21;;;;;;;5.63;2.00;;;4.00;99.90;;;;;;5039518;28;20561;-77
2022/12/28 01:33:47;;;;;;;4.17;1.80;;;4.10;99.90;;;;;;5037883;28;20172;-77
2022/12/28 01:36:21;;;;;;;2.97;2.00;;;4.20;99.90;;;;;;5057095;28;20200;-78
2022/12/28 01:38:54;;;;;;;3.33;1.90;;;4.20;99.90;;;;;;5030984;28;20574;-77
2022/12/28 01:41:21;;;;;;;4.30;2.00;;;4.20;99.90;;;;;;5036458;28;20634;-78
2022/12/28 01:44:09;;;;;;;5.10;2.10;;;4.20;99.90;;;;;;5036158;28;20175;-77
2022/12/28 01:46:51;;;;;;;5.10;1.83;;;4.20;99.90;;;;;;5019045;28;20239;-77
2022/12/28 01:49:25;;;;;;;3.63;1.93;;;4.30;99.90;;;;;;5032328;28;20208;-78
2022/12/28 01:51:57;;;;;;;6.73;1.87;;;4.30;99.90;;;;;;5053232;28;20241;-77
2022/12/28 01:54:25;;;;;;;3.00;1.73;;;4.30;99.90;;;;;;5038052;28;20165;-78
2022/12/28 01:56:51;;;;;;;2.63;2.20;;;4.30;99.90;;;;;;5038774;28;20183;-78
2022/12/28 01:59:21;;;;;;;4.50;1.80;;;4.30;99.90;;;;;;5056439;28;20268;-77
2022/12/28 02:01:47;;;;;;;2.37;1.57;;;4.30;99.90;;;;;;5039880;28;20201;-77
2022/12/28 02:04:13;;;;;;;5.47;1.97;;;4.30;99.90;;;;;;5038209;28;20176;-78
2022/12/28 02:06:38;;;;;;;4.70;1.83;;;4.30;99.90;;;;;;5038397;28;20176;-77
2022/12/28 02:09:15;;;;;;;3.77;2.30;;;4.20;99.90;;;;;;5039142;28;20230;-77
2022/12/28 02:11:42;;;;;;;6.30;2.23;;;4.20;99.90;;;;;;5038439;28;20176;-77
2022/12/28 02:14:10;;;;;;;4.53;2.30;;;4.20;99.90;;;;;;5037788;28;20650;-77
2022/12/28 02:16:35;;;;;;;3.97;2.10;;;4.20;99.90;;;;;;5038978;28;20234;-77
2022/12/28 02:19:02;;;;;;;3.27;2.00;;;4.20;99.90;;;;;;5056273;28;20246;-77
2022/12/28 02:21:27;;;;;;;4.13;2.30;;;4.10;99.90;;;;;;5038435;28;20176;-78
2022/12/28 02:23:53;;;;;;;3.77;2.40;;;4.10;99.90;;;;;;5055754;28;20631;-77
2022/12/28 02:26:24;;;;;;;6.47;2.40;;;4.10;99.90;;;;;;5056163;28;20200;-77
2022/12/28 02:29:04;;;;;;;5.23;2.37;;;4.10;99.90;;;;;;5038873;28;20189;-77
2022/12/28 02:31:43;;;;;;;4.43;2.13;;;4.10;99.90;;;;;;5056491;28;20161;-77
2022/12/28 02:34:17;;;;;;;2.97;2.03;;;4.00;99.90;;;;;;5054375;28;20187;-77
2022/12/28 02:36:50;;;;;;;5.73;2.30;;;4.00;99.90;;;;;;5036951;28;20226;-77
2022/12/28 02:39:23;;;;;;;5.77;2.33;;;4.10;99.90;;;;;;5054492;28;20595;-77
2022/12/28 02:41:50;;;;;;;4.63;3.00;;;4.00;99.90;;;;;;5054736;28;20173;-77
2022/12/28 02:50:04;;;;;;;4.03;2.50;;;4.00;99.90;;;;;;5035526;28;20199;-77
2022/12/28 02:53:07;;;;;;;5.20;2.83;;;4.10;99.90;;;;;;5035279;28;20542;-78
2022/12/28 02:58:41;;;;;;;6.17;2.63;;;4.20;99.90;;;;;;5036265;28;20204;-78
2022/12/28 03:01:26;;;;;;;4.37;2.50;;;4.20;99.90;;;;;;5038692;28;20170;-78
2022/12/28 03:04:09;;;;;;;5.13;2.67;;;4.20;99.90;;;;;;5021103;28;20170;-78
2022/12/28 03:09:33;;;;;;;3.90;2.37;;;4.20;99.90;;;;;;5037758;28;20251;-77
2022/12/28 03:12:08;;;;;;;5.53;3.00;;;4.20;99.90;;;;;;5038375;28;20180;-78
2022/12/28 03:14:46;;;;;;;5.73;3.40;;;4.10;99.90;;;;;;5039002;28;20290;-77
2022/12/28 03:31:16;;;;;;;6.87;3.00;;;4.10;99.90;;;;;;5055528;28;20199;-77
2022/12/28 03:33:47;;;;;;;5.23;2.90;;;4.20;99.90;;;;;;5055383;28;20188;-78
2022/12/28 03:36:45;;;;;;;5.00;2.90;;;4.20;99.90;;;;;;5041406;28;20736;-78
2022/12/28 03:39:30;;;;;;;5.00;3.00;;;4.20;99.90;;;;;;5041678;28;20665;-77
2022/12/28 03:45:11;;;;;;;5.13;2.80;;;4.20;99.90;;;;;;5059078;28;20251;-78
2022/12/28 03:47:38;;;;;;;4.10;2.93;;;4.20;99.90;;;;;;5041190;28;20164;-77
2022/12/28 03:50:05;;;;;;;4.53;2.60;;;4.30;99.90;;;;;;5040946;28;20231;-76
2022/12/28 03:52:31;;;;;;;6.93;2.97;;;4.20;99.90;;;;;;5058150;28;20667;-78
2022/12/28 03:54:57;;;;;;;4.60;2.80;;;4.20;99.90;;;;;;5040566;28;20197;-77
2022/12/28 03:57:23;;;;;;;4.40;3.07;;;4.20;99.90;;;;;;5041217;28;20219;-78
2022/12/28 03:59:49;;;;;;;5.13;3.00;;;4.20;99.90;;;;;;5040545;28;20218;-77
2022/12/28 04:02:14;;;;;;;3.67;2.97;;;4.30;99.90;;;;;;5058333;28;20241;-75
2022/12/28 04:04:40;;;;;;;4.97;3.40;;;4.30;99.90;;;;;;5058676;28;20204;-78
2022/12/28 04:07:05;;;;;;;5.93;3.30;;;4.30;99.90;;;;;;5040866;28;20204;-77
2022/12/28 04:09:31;;;;;;;9.20;3.37;;;4.40;99.90;;;;;;5041115;28;20174;-78
2022/12/28 04:11:57;;;;;;;4.23;3.20;;;4.50;99.90;;;;;;5041713;28;20178;-78
2022/12/28 04:14:22;;;;;;;7.20;3.20;;;4.50;99.90;;;;;;5040795;28;20181;-77
2022/12/28 04:16:48;;;;;;;5.00;3.40;;;4.50;99.90;;;;;;5059253;28;20188;-77
2022/12/28 04:19:14;;;;;;;5.17;3.03;;;4.50;99.90;;;;;;5041890;28;20177;-78
2022/12/28 04:21:39;;;;;;;5.73;3.07;;;4.60;99.90;;;;;;5042005;28;20189;-78
2022/12/28 04:24:05;;;;;;;7.23;3.57;;;4.60;99.90;;;;;;5041243;28;20178;-76
2022/12/28 04:26:30;;;;;;;7.13;3.57;;;4.50;99.90;;;;;;5040878;28;20169;-78
2022/12/28 04:29:00;;;;;;;4.23;3.40;;;4.50;99.90;;;;;;5041474;28;20525;-77
2022/12/28 04:31:27;;;;;;;4.50;2.97;;;4.50;99.90;;;;;;5058413;28;20185;-77
2022/12/28 04:33:55;;;;;;;4.90;3.40;;;4.50;99.90;;;;;;5058706;28;20173;-77
2022/12/28 04:36:21;;;;;;;5.07;3.50;;;4.50;99.90;;;;;;5040778;28;20213;-78
2022/12/28 04:38:46;;;;;;;6.33;3.60;;;4.50;99.90;;;;;;5041206;28;20200;-76
2022/12/28 04:41:12;;;;;;;8.10;3.57;;;4.50;99.90;;;;;;5041713;28;20180;-78
2022/12/28 04:43:39;;;;;;;7.30;3.60;;;4.50;99.90;;;;;;5041397;28;20295;-78
2022/12/28 04:46:08;;;;;;;6.53;3.73;;;4.40;99.90;;;;;;5041234;28;20194;-76
2022/12/28 04:48:34;;;;;;;5.37;3.57;;;4.40;99.90;;;;;;5041474;28;20177;-77
2022/12/28 04:51:09;;;;;;;5.00;3.30;;;4.40;99.90;;;;;;5052743;28;20191;-76
2022/12/28 04:53:39;;;;;;;5.87;3.30;;;4.40;99.90;;;;;;5045341;28;20183;-75
2022/12/28 04:56:09;;;;;;;5.23;3.33;;;4.40;99.90;;;;;;5040651;28;20205;-74
2022/12/28 04:58:36;;;;;;;4.97;3.47;;;4.40;99.90;;;;;;5058395;28;20255;-78
2022/12/28 05:01:06;;;;;;;4.43;3.00;;;4.30;99.90;;;;;;5057975;28;20188;-78
2022/12/28 05:03:32;;;;;;;4.33;3.40;;;4.40;99.90;;;;;;5057050;28;20201;-77
2022/12/28 05:06:06;;;;;;;5.53;3.80;;;4.40;99.90;;;;;;5040419;28;20209;-75
2022/12/28 05:08:33;;;;;;;6.17;3.73;;;4.40;99.90;;;;;;5058043;28;20176;-77
2022/12/28 05:11:04;;;;;;;5.53;3.43;;;4.40;99.90;;;;;;5057567;28;20196;-75
2022/12/28 05:13:29;;;;;;;3.87;3.20;;;4.40;99.90;;;;;;5040034;28;20181;-78
2022/12/28 05:16:01;;;;;;;5.33;3.23;;;4.40;99.90;;;;;;5040564;28;20200;-78
2022/12/28 05:18:26;;;;;;;6.73;3.53;;;4.40;99.90;;;;;;5057142;28;20193;-78
2022/12/28 05:21:07;;;;;;;5.50;3.20;;;4.40;99.90;;;;;;5056687;28;20697;-78
2022/12/28 05:23:34;;;;;;;5.07;3.60;;;4.40;99.90;;;;;;5039005;28;20616;-78
2022/12/28 05:26:00;;;;;;;6.80;3.40;;;4.40;99.90;;;;;;5056597;28;20200;-78
2022/12/28 05:28:26;;;;;;;4.93;3.30;;;4.40;99.90;;;;;;5039576;28;20191;-77
2022/12/28 05:30:52;;;;;;;3.90;3.20;;;4.40;99.90;;;;;;5038337;28;20221;-78
2022/12/28 05:33:18;;;;;;;5.50;3.20;;;4.40;99.90;;;;;;5038120;28;20203;-79
2022/12/28 05:35:44;;;;;;;4.40;2.93;;;4.50;99.90;;;;;;5038478;28;20276;-78
2022/12/28 05:38:10;;;;;;;3.50;3.20;;;4.50;99.90;;;;;;5080131;22;20233;-77
2022/12/28 05:40:35;;;;;;;3.90;3.20;;;4.50;99.90;;;;;;5037062;28;20173;-77
2022/12/28 05:43:01;;;;;;;5.60;3.57;;;4.60;99.90;;;;;;5054330;28;20205;-77
2022/12/28 05:45:26;;;;;;;6.17;3.47;;;4.60;99.90;;;;;;5054152;28;20627;-77
2022/12/28 05:47:53;;;;;;;4.60;3.57;;;4.60;99.90;;;;;;5035459;28;20208;-78
2022/12/28 05:50:19;;;;;;;4.40;3.57;;;4.60;99.90;;;;;;5035219;28;20192;-78
2022/12/28 05:52:44;;;;;;;5.50;3.40;;;4.60;99.90;;;;;;5052338;28;20561;-79
2022/12/28 05:55:10;;;;;;;7.23;3.60;;;4.70;99.90;;;;;;5034871;28;20177;-78
2022/12/28 05:57:36;;;;;;;4.40;3.20;;;4.70;99.90;;;;;;5034900;28;20212;-78
2022/12/28 06:00:02;;;;;;;8.07;3.40;;;4.70;99.90;;;;;;5052877;28;20177;-85
2022/12/28 06:02:27;;;;;;;7.13;3.30;;;4.80;99.90;;;;;;5034215;28;20223;-78
2022/12/28 06:04:53;;;;;;;4.37;3.53;;;4.70;99.90;;;;;;5035092;28;20180;-79
2022/12/28 06:07:19;;;;;;;3.20;2.90;;;4.80;99.90;;;;;;5034541;28;20669;-77
2022/12/28 06:09:45;;;;;;;5.80;3.20;;;4.80;99.90;;;;;;5052427;28;20201;-78
2022/12/28 06:12:10;;;;;;;6.57;3.20;;;4.80;99.90;;;;;;5052354;28;20221;-79
2022/12/28 06:14:36;;;;;;;4.40;3.30;;;4.80;99.90;;;;;;5034488;28;20177;-78
2022/12/28 06:17:01;;;;;;;4.13;2.63;;;4.80;99.90;;;;;;5052230;28;20215;-78
2022/12/28 06:19:27;;;;;;;6.47;3.40;;;4.90;99.90;;;;;;5034665;28;20296;-78
2022/12/28 06:21:52;;;;;;;4.23;3.37;;;4.90;99.90;;;;;;5034634;28;20173;-78
2022/12/28 06:24:18;;;;;;;4.17;3.10;;;5.00;99.90;;;;;;5051976;28;20265;-78
2022/12/28 06:26:44;;;;;;;5.00;2.80;;;5.10;99.90;;;;;;5034745;28;20173;-78
2022/12/28 06:29:11;;;;;;;8.63;3.87;;;5.10;99.90;;;;;;5052224;28;20216;-77
2022/12/28 06:31:39;;;;;;;4.50;2.90;;;5.20;99.90;;;;;;5036671;28;20690;-81
2022/12/28 06:34:06;;;;;;;7.70;3.13;;;5.20;99.90;;;;;;5038273;28;20178;-78
2022/12/28 06:36:35;;;;;;;5.37;2.97;;;5.20;99.90;;;;;;5057144;28;20648;-78
2022/12/28 06:39:02;;;;;;;6.60;2.83;;;5.20;99.90;;;;;;5038424;28;20228;-78
2022/12/28 06:41:28;;;;;;;4.97;3.20;;;5.30;99.90;;;;;;5058028;28;20169;-80
2022/12/28 06:43:54;;;;;;;4.23;2.93;;;5.40;99.90;;;;;;5058396;28;20173;-81
2022/12/28 06:46:21;;;;;;;3.90;2.67;;;5.40;99.90;;;;;;5042042;28;20264;-80
2022/12/28 06:48:47;;;;;;;6.10;3.20;;;5.40;99.90;;;;;;5059507;28;20193;-80
2022/12/28 06:51:21;;;;;;;6.60;3.10;;;5.40;99.90;;;;;;5041893;28;20249;-79
2022/12/28 06:53:48;;;;;;;6.07;3.30;;;5.30;99.90;;;;;;5039555;28;20174;-80
2022/12/28 06:56:23;;;;;;;5.63;2.83;;;5.30;99.90;;;;;;5057808;28;20174;-80
2022/12/28 06:58:49;;;;;;;5.57;2.80;;;5.40;99.90;;;;;;5056456;28;20200;-80
2022/12/28 07:01:19;;;;;;;4.97;3.07;;;5.40;99.90;;;;;;5057900;28;20173;-80
2022/12/28 07:03:46;;;;;;;5.30;2.97;;;5.50;99.90;;;;;;5022511;28;20179;-82
2022/12/28 07:06:14;;;;;;;4.40;2.83;;;5.50;99.90;;;;;;5038180;28;20174;-80
2022/12/28 07:08:40;;;;;;;3.97;2.87;;;5.50;99.90;;;;;;5019088;28;20285;-82
2022/12/28 07:11:14;;;;;;;4.20;3.20;;;5.50;99.90;;;;;;5036535;28;20214;-83
2022/12/28 07:13:40;;;;;;;4.90;2.90;;;5.50;99.90;;;;;;5036120;28;20166;-84
2022/12/28 07:16:13;;;;;;;4.80;3.00;;;5.50;99.90;;;;;;5036377;28;20574;-83
2022/12/28 07:18:40;;;;;;;4.20;2.87;;;5.50;99.90;;;;;;5036335;28;20210;-82
2022/12/28 07:21:11;;;;;;;5.00;2.97;;;5.50;99.90;;;;;;5036008;28;20175;-80
2022/12/28 07:23:37;;;;;;;3.30;2.80;;;5.50;99.90;;;;;;5035729;28;20175;-80
2022/12/28 07:26:06;;;;;;;4.30;2.93;;;5.50;99.90;;;;;;5036695;28;20397;-80
2022/12/28 07:28:31;;;;;;;4.63;2.80;;;5.50;99.90;;;;;;5018415;28;20195;-79
2022/12/28 07:30:57;;;;;;;3.00;2.67;;;5.60;99.90;;;;;;5028875;28;20176;-80
2022/12/28 07:33:22;;;;;;;4.87;3.00;;;5.60;99.90;;;;;;5037910;28;20178;-80
2022/12/28 07:35:48;;;;;;;5.33;2.63;;;5.60;99.90;;;;;;5038718;28;20631;-80
2022/12/28 07:38:14;;;;;;;4.37;2.70;;;5.60;99.90;;;;;;5055560;28;20209;-77
2022/12/28 07:40:39;;;;;;;8.07;2.60;;;5.60;99.90;;;;;;5037411;28;20245;-75
2022/12/28 07:43:05;;;;;;;4.43;2.57;;;5.60;99.90;;;;;;5054942;28;20646;-78
2022/12/28 07:45:31;;;;;;;4.27;2.77;;;5.70;99.90;;;;;;5055036;28;20169;-76
2022/12/28 07:47:57;;;;;;;6.40;3.27;;;5.70;99.90;;;;;;5037277;28;20204;-78
2022/12/28 07:50:22;;;;;;;5.13;2.90;;;5.60;99.90;;;;;;5037154;28;20541;-78
2022/12/28 07:52:48;;;;;;;3.27;2.50;;;5.60;99.90;;;;;;5036620;28;20173;-78
2022/12/28 07:55:13;;;;;;;3.10;2.60;;;5.60;99.90;;;;;;5036986;28;20188;-77
2022/12/28 07:57:39;;;;;;;4.00;2.60;;;5.60;99.90;;;;;;5036865;28;20259;-78
2022/12/28 08:00:06;;;;;;;5.30;2.80;;;5.60;99.90;;;;;;5037176;28;20179;-77
2022/12/28 08:02:31;;;;;;;3.83;2.53;;;5.70;99.90;;;;;;5036725;28;20288;-77
2022/12/28 08:04:57;;;;;;;4.67;2.67;;;5.70;99.90;;;;;;5036902;28;20290;-78
2022/12/28 08:07:23;;;;;;;3.13;2.70;;;5.70;99.90;;;;;;5036774;28;20517;-77
2022/12/28 08:09:49;;;;;;;3.57;2.47;;;5.70;99.90;;;;;;5054800;28;20752;-77
2022/12/28 08:12:14;;;;;;;2.93;2.40;;;5.70;99.90;;;;;;5036411;28;20180;-76
2022/12/28 08:14:40;;;;;;;3.70;2.60;;;5.70;99.90;;;;;;5036631;28;20198;-78
2022/12/28 08:17:05;;;;;;;4.27;2.50;;;5.70;99.90;;;;;;5054729;28;20174;-78
2022/12/28 08:19:31;;;;;;;4.27;2.93;;;5.70;99.90;;;;;;5054252;28;20190;-77
2022/12/28 08:21:56;;;;;;;4.57;2.60;;;5.70;99.90;;;;;;5036526;28;20226;-78
2022/12/28 08:24:22;;;;;;;2.97;2.50;;;5.70;99.90;;;;;;5036468;28;20196;-77
2022/12/28 08:26:48;;;;;;;3.67;2.50;;;5.80;99.90;;;;;;5036459;28;20169;-77
2022/12/28 08:29:18;;;;;;;3.13;2.37;;;5.80;99.90;;;;;;5036588;28;20190;-78
2022/12/28 08:31:45;;;;;;;4.00;2.33;;;5.80;99.90;;;;;;5054364;28;20174;-75
2022/12/28 08:34:15;;;;;;;3.73;2.60;;;5.80;99.90;;;;;;5030198;28;20557;-77
2022/12/28 08:36:40;;;;;;;3.23;2.30;;;5.80;99.90;;;;;;5040887;28;20188;-75
2022/12/28 08:39:06;;;;;;;4.00;2.47;;;5.80;99.90;;;;;;5053901;28;20231;-78
2022/12/28 08:41:35;;;;;;;3.47;2.30;;;5.90;99.90;;;;;;5036374;28;20167;-77
2022/12/28 08:44:00;;;;;;;4.43;2.53;;;5.90;99.90;;;;;;5053664;28;20173;-78
2022/12/28 08:46:28;;;;;;;3.13;2.40;;;5.90;99.90;;;;;;5052421;28;20274;-78
2022/12/28 08:48:56;;;;;;;3.70;2.17;;;6.00;99.90;;;;;;5053331;28;20194;-77
2022/12/28 08:51:33;;;;;;;2.90;2.30;;;5.90;99.90;;;;;;5035942;28;20231;-76
2022/12/28 08:54:00;;;;;;;3.93;2.20;;;6.00;99.90;;;;;;5035202;28;20553;-75
2022/12/28 08:56:28;;;;;;;2.80;2.10;;;6.00;99.90;;;;;;5052638;28;20677;-77
2022/12/28 08:58:55;;;;;;;3.77;2.50;;;6.10;99.90;;;;;;5053734;28;20290;-78
2022/12/28 09:01:26;;;;;;;2.83;2.20;;;6.10;99.90;;;;;;5036090;28;20204;-78
2022/12/28 09:03:54;;;;;;;3.23;2.27;;;6.20;99.90;;;;;;5053105;28;20210;-79
2022/12/28 09:06:24;;;;;;;4.63;2.50;;;6.20;99.90;;;;;;5035552;28;20193;-77
2022/12/28 09:08:52;;;;;;;3.53;2.13;;;6.20;99.90;;;;;;5035433;28;20218;-78
2022/12/28 09:11:18;;;;;;;3.67;1.97;;;6.20;99.90;;;;;;5035486;28;20174;-78
2022/12/28 09:13:44;;;;;;;3.33;2.20;;;6.20;99.90;;;;;;5035073;28;20266;-78
2022/12/28 09:16:12;;;;;;;4.50;2.10;;;6.30;99.90;;;;;;5053093;28;20176;-78
2022/12/28 09:18:40;;;;;;;2.57;1.90;;;6.30;99.90;;;;;;5035068;28;20303;-78
2022/12/28 09:21:07;;;;;;;3.17;1.83;;;6.30;99.90;;;;;;5035476;28;20168;-78
2022/12/28 09:23:33;;;;;;;3.80;1.90;;;6.40;99.90;;;;;;5052899;28;20255;-74
2022/12/28 09:26:08;;;;;;;2.47;2.03;;;6.40;99.90;;;;;;5053463;28;20263;-76
2022/12/28 09:28:33;;;;;;;2.10;1.80;;;6.50;99.90;;;;;;5053190;28;20603;-79
2022/12/28 09:31:02;;;;;;;7.63;2.23;;;6.50;99.90;;;;;;5053172;28;20171;-73
2022/12/28 09:36:12;;;;;;;3.73;2.10;;;6.50;99.90;;;;;;5053098;28;20268;-78
2022/12/28 09:38:37;;;;;;;2.93;2.20;;;6.50;99.90;;;;;;5034951;28;20243;-77
2022/12/28 09:41:30;;;;;;;4.00;2.30;;;6.60;99.90;;;;;;5034898;28;20169;-75
2022/12/28 09:44:04;;;;;;;4.07;3.07;;;6.60;99.90;;;;;;5020277;28;20203;-76
2022/12/28 09:46:32;;;;;;;3.13;1.83;;;6.60;99.90;;;;;;5033293;28;20181;-79
2022/12/28 09:49:00;;;;;;;3.27;2.00;;;6.60;99.90;;;;;;5034653;28;20655;-78
2022/12/28 09:51:34;;;;;;;2.50;2.00;;;6.60;99.90;;;;;;5034515;28;20184;-79
2022/12/28 09:53:59;;;;;;;3.93;2.20;;;6.70;99.90;;;;;;5034193;28;20171;-79
2022/12/28 09:56:41;;;;;;;3.43;1.90;;;6.70;99.90;;;;;;5034851;28;20230;-74
2022/12/28 09:59:07;;;;;;;4.00;2.40;;;6.70;99.90;;;;;;5034919;28;20239;-77
2022/12/28 10:01:36;;;;;;;3.80;2.30;;;6.60;99.90;;;;;;5052480;28;20187;-76
2022/12/28 10:04:03;;;;;;;2.87;2.33;;;6.60;99.90;;;;;;5052148;28;20630;-76
2022/12/28 10:06:35;;;;;;;3.73;1.90;;;6.70;99.90;;;;;;5052468;28;20173;-75
2022/12/28 10:09:04;;;;;;;4.47;2.20;;;6.70;99.90;;;;;;5051563;28;20206;-75
2022/12/28 10:11:38;;;;;;;4.47;2.30;;;6.70;99.90;;;;;;5032960;28;20185;-75
2022/12/28 10:14:18;;;;;;;4.03;2.17;;;6.70;99.90;;;;;;5032735;28;20176;-76
2022/12/28 10:16:45;;;;;;;2.60;2.00;;;6.70;99.90;;;;;;5034268;28;20597;-74
2022/12/28 10:19:18;;;;;;;2.47;1.80;;;6.70;99.90;;;;;;5024357;28;20206;-75
2022/12/28 10:21:45;;;;;;;4.87;2.37;;;6.80;99.90;;;;;;5035404;28;20188;-77
2022/12/28 10:24:12;;;;;;;2.67;1.80;;;6.80;99.90;;;;;;5034153;28;20242;-75
2022/12/28 10:26:41;;;;;;;3.77;2.03;;;6.80;99.90;;;;;;5034272;28;20181;-73
2022/12/28 10:29:18;;;;;;;3.40;1.80;;;6.80;99.90;;;;;;5032467;28;20271;-76
2022/12/28 10:31:59;;;;;;;5.30;2.20;;;6.80;99.90;;;;;;5034696;28;20177;-82
2022/12/28 10:34:25;;;;;;;2.50;2.10;;;6.80;99.90;;;;;;5033664;28;20689;-75
2022/12/28 10:36:53;;;;;;;3.97;2.00;;;6.90;99.90;;;;;;5034163;28;20180;-76
2022/12/28 10:39:30;;;;;;;2.97;1.70;;;6.90;99.90;;;;;;5050972;28;20236;-77
2022/12/28 10:41:57;;;;;;;2.80;1.83;;;6.90;99.90;;;;;;5034528;28;20545;-77
2022/12/28 10:44:29;;;;;;;2.97;2.20;;;6.90;99.90;;;;;;5049927;28;20657;-77
2022/12/28 10:47:02;;;;;;;2.80;1.80;;;6.90;99.90;;;;;;5032204;28;20230;-77
2022/12/28 10:49:33;;;;;;;4.37;2.83;;;7.00;99.90;;;;;;5034128;28;20194;-77
2022/12/28 10:52:17;;;;;;;3.37;2.03;;;6.90;99.90;;;;;;5051975;28;20215;-78
2022/12/28 10:54:42;;;;;;;6.03;3.20;;;6.90;99.90;;;;;;5051583;28;20635;-77
2022/12/28 10:57:30;;;;;;;4.60;2.13;;;7.00;99.90;;;;;;5033259;28;20184;-77
2022/12/28 11:00:15;;;;;;;2.20;1.80;;;6.90;99.90;;;;;;5033167;28;20544;-78
2022/12/28 11:02:42;;;;;;;3.60;2.10;;;7.00;99.90;;;;;;5033278;28;20266;-78
2022/12/28 11:05:21;;;;;;;4.10;2.00;;;7.00;99.90;;;;;;5051793;28;20177;-79
2022/12/28 11:07:47;;;;;;;3.87;2.60;;;7.00;99.90;;;;;;5026120;28;20212;-81
2022/12/28 11:10:25;;;;;;;4.43;2.00;;;7.00;99.90;;;;;;5032146;28;20181;-77
2022/12/28 11:12:56;;;;;;;4.60;2.17;;;7.00;99.90;;;;;;5051055;28;20184;-77
2022/12/28 11:15:24;;;;;;;2.50;1.97;;;7.00;99.90;;;;;;5051399;28;20184;-75
2022/12/28 11:17:57;;;;;;;2.27;2.00;;;7.00;99.90;;;;;;5031961;28;20209;-76
2022/12/28 11:20:29;;;;;;;3.63;1.80;;;7.10;99.90;;;;;;5034124;28;20203;-78
2022/12/28 11:22:55;;;;;;;2.97;1.93;;;7.10;99.90;;;;;;5040127;28;20174;-77
2022/12/28 11:25:28;;;;;;;3.60;2.20;;;7.10;99.90;;;;;;5055454;28;20271;-77
2022/12/28 11:27:55;;;;;;;3.80;2.30;;;7.10;99.90;;;;;;5054990;28;20208;-77
2022/12/28 11:30:20;;;;;;;5.03;2.13;;;7.10;99.90;;;;;;5054250;28;20180;-77
2022/12/28 11:32:53;;;;;;;5.07;2.30;;;7.20;99.90;;;;;;5055831;28;20172;-80
2022/12/28 11:35:36;;;;;;;3.73;2.20;;;7.20;99.90;;;;;;5054450;28;20598;-78
2022/12/28 11:40:42;;;;;;;2.20;1.70;;;7.20;99.90;;;;;;5039464;28;20221;-79
2022/12/28 11:43:26;;;;;;;3.53;2.10;;;7.30;99.90;;;;;;5033102;28;20166;-79
2022/12/28 11:45:54;;;;;;;3.17;1.90;;;7.30;99.90;;;;;;5016692;28;20177;-80
2022/12/28 11:49:02;;;;;;;2.13;1.83;;;7.40;99.90;;;;;;5017039;28;20289;-80
2022/12/28 11:51:35;;;;;;;2.97;2.30;;;7.40;99.90;;;;;;4917062;29;20230;-80
2022/12/28 11:54:48;;;;;;;4.10;1.80;;;7.40;99.90;;;;;;4900352;29;20197;-79
2022/12/28 11:57:42;;;;;;;2.73;1.80;;;7.40;99.90;;;;;;4989364;28;20691;-80
2022/12/28 12:00:19;;;;;;;3.30;1.80;;;7.50;99.90;;;;;;4998562;28;20619;-78
2022/12/28 12:02:51;;;;;;;2.70;1.90;;;7.40;99.90;;;;;;5009435;28;20224;-79
2022/12/28 12:05:37;;;;;;;3.23;2.00;;;7.50;99.90;;;;;;4997624;28;20207;-78
2022/12/28 12:08:13;;;;;;;3.70;1.93;;;7.50;99.90;;;;;;4998419;28;20190;-80
2022/12/28 12:10:40;;;;;;;2.73;1.90;;;7.50;99.90;;;;;;5015835;28;20193;-80
2022/12/28 12:13:24;;;;;;;3.13;1.90;;;7.50;99.90;;;;;;5014029;28;20256;-79
2022/12/28 12:15:54;;;;;;;3.03;2.10;;;7.50;99.90;;;;;;5016776;28;20536;-80
2022/12/28 12:18:23;;;;;;;3.43;1.67;;;7.50;99.90;;;;;;4989285;28;20639;-80
2022/12/28 12:20:54;;;;;;;3.50;1.90;;;7.50;99.90;;;;;;5012071;28;20535;-82
2022/12/28 12:23:35;;;;;;;2.50;1.80;;;7.50;99.90;;;;;;4984486;28;20595;-81
2022/12/28 12:26:29;;;;;;;5.63;2.00;;;7.60;99.90;;;;;;4996827;28;20278;-81
2022/12/28 12:29:03;;;;;;;2.43;2.00;;;7.60;99.90;;;;;;4972078;28;20682;-81
2022/12/28 12:31:34;;;;;;;3.07;2.10;;;7.60;99.90;;;;;;4995518;28;20172;-82
2022/12/28 12:34:25;;;;;;;3.60;1.80;;;7.70;99.90;;;;;;4995169;28;20614;-83
2022/12/28 12:37:09;;;;;;;5.57;1.80;;;7.60;99.90;;;;;;5003607;28;20204;-81
2022/12/28 12:39:57;;;;;;;1.60;1.50;;;7.70;99.90;;;;;;5010597;28;20218;-81
2022/12/28 12:42:25;;;;;;;3.90;1.90;;;7.70;99.90;;;;;;5014864;28;20167;-85
2022/12/28 12:45:11;;;;;;;3.63;1.93;;;7.80;99.90;;;;;;4994454;28;20179;-82
2022/12/28 12:47:54;;;;;;;3.77;1.80;;;7.70;99.90;;;;;;4997268;28;20193;-81
2022/12/28 12:50:48;;;;;;;2.13;1.60;;;7.70;99.90;;;;;;4985415;28;20213;-82
2022/12/28 12:53:47;;;;;;;2.80;1.70;;;7.70;99.90;;;;;;4986081;28;20179;-81
2022/12/28 12:56:22;;;;;;;2.57;1.40;;;7.70;99.90;;;;;;4995636;28;20262;-82
2022/12/28 12:58:55;;;;;;;2.87;1.60;;;7.70;99.90;;;;;;4981930;28;20210;-82
2022/12/28 13:02:02;;;;;;;2.77;1.60;;;7.70;99.90;;;;;;4987749;28;20180;-79
2022/12/28 13:04:31;;;;;;;3.47;1.33;;;7.70;99.90;;;;;;4993124;28;20204;-81
2022/12/28 13:07:03;;;;;;;2.47;1.60;;;7.70;99.90;;;;;;4998761;28;20186;-82
2022/12/28 13:09:33;;;;;;;2.40;1.63;;;7.70;99.90;;;;;;4980434;28;20207;-81
2022/12/28 13:12:00;;;;;;;4.10;1.80;;;7.70;99.90;;;;;;4979246;28;20546;-83
2022/12/28 13:14:27;;;;;;;3.00;1.60;;;7.70;99.90;;;;;;4979132;28;20175;-81
2022/12/28 13:16:55;;;;;;;2.73;1.70;;;7.80;99.90;;;;;;4979066;28;20175;-80
2022/12/28 13:19:23;;;;;;;3.80;1.90;;;7.80;99.90;;;;;;4978926;28;20294;-81
2022/12/28 13:21:50;;;;;;;3.77;1.70;;;7.80;99.90;;;;;;4995435;28;20185;-81
2022/12/28 13:24:26;;;;;;;2.80;1.70;;;7.80;99.90;;;;;;5016211;28;20178;-81
2022/12/28 13:26:56;;;;;;;3.33;1.70;;;7.80;99.90;;;;;;5008145;28;20200;-80
2022/12/28 13:29:26;;;;;;;2.30;1.67;;;7.80;99.90;;;;;;5007496;28;20230;-80
2022/12/28 13:31:52;;;;;;;3.40;1.70;;;7.70;99.90;;;;;;5009037;28;20172;-80
2022/12/28 13:34:20;;;;;;;2.83;1.60;;;7.70;99.90;;;;;;4984315;28;20184;-79
2022/12/28 13:36:55;;;;;;;3.37;1.77;;;7.70;99.90;;;;;;4998623;28;20260;-78
2022/12/28 13:39:22;;;;;;;2.63;1.50;;;7.70;99.90;;;;;;4998546;28;20700;-82
2022/12/28 13:41:52;;;;;;;3.10;1.60;;;7.70;99.90;;;;;;4997190;28;20521;-83
2022/12/28 13:44:37;;;;;;;2.77;1.90;;;7.70;99.90;;;;;;4998283;28;20175;-79
2022/12/28 13:47:11;;;;;;;2.93;1.77;;;7.80;99.90;;;;;;4996188;28;20225;-83